JST479 YSSY-YSCB
Flight info
| Callsign | JST479 |
|---|---|
| Flight time | 0h 31m |
| Altitude | 16000 |
| Route | GROOK1/16R WOL H65 CB |
| Aircraft | A20N/M-SDE2E3FGHIRWXY/LB1 |
Departure
| Time | 2026-04-24 11:55 |
|---|---|
| Airport | Sydney Kingsford Smith International Airport (YSSY) |
Arrival
| Time | 2026-04-24 12:27 |
|---|---|
| Airport | Canberra Airport (YSCB) |
| Time | Latitude | Longitude | Altitude | Speed | Heading |
|---|---|---|---|---|---|
| 2026-04-24 11:41 | -33.93562 | 151.17773 | 30 ft | 0 kts | 280° |
| 2026-04-24 11:48 | -33.93564 | 151.17786 | 30 ft | 2 kts | 277° |
| 2026-04-24 11:48 | -33.93566 | 151.17805 | 30 ft | 2 kts | 269° |
| 2026-04-24 11:48 | -33.93562 | 151.17825 | 30 ft | 2 kts | 224° |
| 2026-04-24 11:48 | -33.93550 | 151.17833 | 30 ft | 1 kts | 191° |
| 2026-04-24 11:49 | -33.93547 | 151.17833 | 30 ft | 0 kts | 190° |
| 2026-04-24 11:50 | -33.93583 | 151.17826 | 30 ft | 13 kts | 189° |
| 2026-04-24 11:50 | -33.93699 | 151.17803 | 30 ft | 17 kts | 190° |
| 2026-04-24 11:50 | -33.93786 | 151.17784 | 23 ft | 16 kts | 189° |
| 2026-04-24 11:51 | -33.93860 | 151.17703 | 19 ft | 16 kts | 255° |
| 2026-04-24 11:51 | -33.93871 | 151.17652 | 20 ft | 8 kts | 258° |
| 2026-04-24 11:51 | -33.93817 | 151.17588 | 18 ft | 17 kts | 351° |
| 2026-04-24 11:51 | -33.93675 | 151.17551 | 17 ft | 24 kts | 348° |
| 2026-04-24 11:52 | -33.93511 | 151.17509 | 19 ft | 24 kts | 348° |
| 2026-04-24 11:52 | -33.93342 | 151.17493 | 21 ft | 23 kts | 348° |
| 2026-04-24 11:52 | -33.93180 | 151.17451 | 21 ft | 23 kts | 349° |
| 2026-04-24 11:52 | -33.93034 | 151.17414 | 26 ft | 20 kts | 347° |
| 2026-04-24 11:53 | -33.92966 | 151.17348 | 21 ft | 13 kts | 284° |
| 2026-04-24 11:53 | -33.92961 | 151.17318 | 20 ft | 0 kts | 281° |
| 2026-04-24 11:54 | -33.92956 | 151.17260 | 19 ft | 21 kts | 266° |
| 2026-04-24 11:54 | -33.93128 | 151.17209 | 21 ft | 43 kts | 167° |
| 2026-04-24 11:54 | -33.93638 | 151.17340 | 15 ft | 106 kts | 168° |
| 2026-04-24 11:55 | -33.94523 | 151.17570 | 28 ft | 152 kts | 167° |
| 2026-04-24 11:55 | -33.95570 | 151.17863 | 523 ft | 152 kts | 169° |
| 2026-04-24 11:55 | -33.96626 | 151.18055 | 1065 ft | 158 kts | 179° |
| 2026-04-24 11:55 | -33.97738 | 151.17929 | 1593 ft | 162 kts | 186° |
| 2026-04-24 11:56 | -33.98907 | 151.17735 | 1974 ft | 178 kts | 185° |
| 2026-04-24 11:56 | -34.00191 | 151.17590 | 2210 ft | 193 kts | 182° |
| 2026-04-24 11:56 | -34.01586 | 151.17509 | 2312 ft | 211 kts | 180° |
| 2026-04-24 11:56 | -34.03126 | 151.17577 | 2480 ft | 233 kts | 167° |
| 2026-04-24 11:57 | -34.04749 | 151.18115 | 2931 ft | 254 kts | 162° |
| 2026-04-24 11:57 | -34.06499 | 151.18735 | 3722 ft | 263 kts | 162° |
| 2026-04-24 11:57 | -34.08265 | 151.19345 | 4769 ft | 266 kts | 162° |
| 2026-04-24 11:57 | -34.10065 | 151.19954 | 5742 ft | 271 kts | 163° |
| 2026-04-24 11:58 | -34.11897 | 151.20567 | 6722 ft | 276 kts | 162° |
| 2026-04-24 11:58 | -34.13766 | 151.21191 | 7665 ft | 280 kts | 162° |
| 2026-04-24 11:58 | -34.15643 | 151.21817 | 8649 ft | 282 kts | 162° |
| 2026-04-24 11:58 | -34.17525 | 151.22440 | 9617 ft | 286 kts | 164° |
| 2026-04-24 11:59 | -34.19539 | 151.22563 | 10461 ft | 299 kts | 187° |
| 2026-04-24 11:59 | -34.21508 | 151.21666 | 10965 ft | 319 kts | 212° |
| 2026-04-24 11:59 | -34.23175 | 151.19831 | 11711 ft | 328 kts | 228° |
| 2026-04-24 11:59 | -34.24592 | 151.17660 | 12606 ft | 331 kts | 232° |
| 2026-04-24 12:00 | -34.25983 | 151.15430 | 13484 ft | 334 kts | 231° |
| 2026-04-24 12:00 | -34.27423 | 151.13210 | 14350 ft | 337 kts | 230° |
| 2026-04-24 12:00 | -34.28915 | 151.11006 | 15106 ft | 341 kts | 229° |
| 2026-04-24 12:00 | -34.30463 | 151.08785 | 15875 ft | 344 kts | 228° |
| 2026-04-24 12:01 | -34.32030 | 151.06565 | 16311 ft | 348 kts | 228° |
| 2026-04-24 12:01 | -34.33600 | 151.04352 | 16458 ft | 348 kts | 228° |
| 2026-04-24 12:01 | -34.35228 | 151.02064 | 16493 ft | 370 kts | 228° |
| 2026-04-24 12:01 | -34.36929 | 150.99694 | 16492 ft | 382 kts | 226° |
| 2026-04-24 12:02 | -34.38906 | 150.97435 | 16495 ft | 394 kts | 220° |
| 2026-04-24 12:02 | -34.40931 | 150.95258 | 16493 ft | 376 kts | 220° |
| 2026-04-24 12:02 | -34.42843 | 150.93191 | 16496 ft | 367 kts | 220° |
| 2026-04-24 12:02 | -34.44765 | 150.91111 | 16493 ft | 373 kts | 220° |
| 2026-04-24 12:03 | -34.46687 | 150.89026 | 16495 ft | 372 kts | 220° |
| 2026-04-24 12:03 | -34.48611 | 150.86937 | 16489 ft | 371 kts | 220° |
| 2026-04-24 12:03 | -34.50539 | 150.84843 | 16491 ft | 371 kts | 221° |
| 2026-04-24 12:03 | -34.52458 | 150.82757 | 16502 ft | 371 kts | 221° |
| 2026-04-24 12:04 | -34.54377 | 150.80670 | 16493 ft | 371 kts | 221° |
| 2026-04-24 12:04 | -34.56184 | 150.78425 | 16493 ft | 372 kts | 229° |
| 2026-04-24 12:04 | -34.57738 | 150.75922 | 16488 ft | 372 kts | 233° |
| 2026-04-24 12:04 | -34.59261 | 150.73379 | 16503 ft | 373 kts | 233° |
| 2026-04-24 12:05 | -34.60795 | 150.70836 | 16507 ft | 374 kts | 232° |
| 2026-04-24 12:05 | -34.62333 | 150.68289 | 16496 ft | 373 kts | 233° |
| 2026-04-24 12:05 | -34.63866 | 150.65748 | 16500 ft | 373 kts | 232° |
| 2026-04-24 12:05 | -34.65399 | 150.63202 | 16504 ft | 373 kts | 233° |
| 2026-04-24 12:06 | -34.66930 | 150.60657 | 16508 ft | 373 kts | 233° |
| 2026-04-24 12:06 | -34.68462 | 150.58109 | 16501 ft | 373 kts | 233° |
| 2026-04-24 12:06 | -34.69992 | 150.55560 | 16502 ft | 373 kts | 233° |
| 2026-04-24 12:06 | -34.71522 | 150.53010 | 16502 ft | 373 kts | 233° |
| 2026-04-24 12:07 | -34.73050 | 150.50461 | 16508 ft | 374 kts | 233° |
| 2026-04-24 12:07 | -34.74580 | 150.47908 | 16517 ft | 373 kts | 233° |
| 2026-04-24 12:07 | -34.76070 | 150.45418 | 16506 ft | 361 kts | 233° |
| 2026-04-24 12:07 | -34.77587 | 150.42884 | 16512 ft | 379 kts | 233° |
| 2026-04-24 12:08 | -34.79185 | 150.40214 | 16526 ft | 402 kts | 233° |
| 2026-04-24 12:08 | -34.80871 | 150.37395 | 16521 ft | 421 kts | 233° |
| 2026-04-24 12:08 | -34.82611 | 150.34479 | 16520 ft | 421 kts | 233° |
| 2026-04-24 12:08 | -34.84284 | 150.31671 | 16521 ft | 399 kts | 233° |
| 2026-04-24 12:09 | -34.85873 | 150.29000 | 16518 ft | 379 kts | 233° |
| 2026-04-24 12:09 | -34.87385 | 150.26461 | 16516 ft | 367 kts | 233° |
| 2026-04-24 12:09 | -34.88901 | 150.23915 | 16523 ft | 374 kts | 233° |
| 2026-04-24 12:09 | -34.90430 | 150.21345 | 16512 ft | 372 kts | 233° |
| 2026-04-24 12:10 | -34.91929 | 150.18823 | 16499 ft | 371 kts | 233° |
| 2026-04-24 12:10 | -34.93480 | 150.16212 | 16360 ft | 386 kts | 233° |
| 2026-04-24 12:10 | -34.95064 | 150.13547 | 16330 ft | 399 kts | 233° |
| 2026-04-24 12:11 | -34.98278 | 150.08125 | 16132 ft | 380 kts | 233° |
| 2026-04-24 12:11 | -34.99781 | 150.05585 | 15732 ft | 366 kts | 233° |
| 2026-04-24 12:11 | -35.01262 | 150.03082 | 14973 ft | 363 kts | 233° |
| 2026-04-24 12:11 | -35.02743 | 150.00578 | 14197 ft | 360 kts | 234° |
| 2026-04-24 12:12 | -35.04201 | 149.98111 | 13380 ft | 356 kts | 234° |
| 2026-04-24 12:12 | -35.05690 | 149.95709 | 12663 ft | 355 kts | 228° |
| 2026-04-24 12:12 | -35.07374 | 149.93526 | 12160 ft | 352 kts | 226° |
| 2026-04-24 12:12 | -35.09060 | 149.91364 | 11611 ft | 348 kts | 226° |
| 2026-04-24 12:13 | -35.10717 | 149.89227 | 10843 ft | 346 kts | 226° |
| 2026-04-24 12:13 | -35.12366 | 149.87098 | 10063 ft | 344 kts | 226° |
| 2026-04-24 12:13 | -35.13994 | 149.84994 | 9396 ft | 337 kts | 226° |
| 2026-04-24 12:13 | -35.15593 | 149.82928 | 9080 ft | 337 kts | 226° |
| 2026-04-24 12:14 | -35.17210 | 149.80836 | 8992 ft | 340 kts | 226° |
| 2026-04-24 12:14 | -35.18819 | 149.78755 | 8979 ft | 338 kts | 226° |
| 2026-04-24 12:14 | -35.20431 | 149.76669 | 8970 ft | 337 kts | 226° |
| 2026-04-24 12:14 | -35.22033 | 149.74595 | 8617 ft | 334 kts | 226° |
| 2026-04-24 12:15 | -35.23623 | 149.72535 | 8028 ft | 331 kts | 226° |
| 2026-04-24 12:15 | -35.25197 | 149.70496 | 7393 ft | 328 kts | 226° |
| 2026-04-24 12:15 | -35.26734 | 149.68502 | 7106 ft | 316 kts | 226° |
| 2026-04-24 12:15 | -35.28179 | 149.66625 | 6996 ft | 302 kts | 226° |
| 2026-04-24 12:16 | -35.29619 | 149.64755 | 6976 ft | 285 kts | 226° |
| 2026-04-24 12:16 | -35.30964 | 149.63007 | 6833 ft | 282 kts | 227° |
| 2026-04-24 12:16 | -35.32306 | 149.61263 | 6534 ft | 281 kts | 227° |
| 2026-04-24 12:16 | -35.33626 | 149.59546 | 6191 ft | 280 kts | 227° |
| 2026-04-24 12:17 | -35.34946 | 149.57827 | 6025 ft | 276 kts | 227° |
| 2026-04-24 12:17 | -35.36276 | 149.56097 | 5981 ft | 279 kts | 227° |
| 2026-04-24 12:17 | -35.37603 | 149.54368 | 5978 ft | 278 kts | 227° |
| 2026-04-24 12:17 | -35.38933 | 149.52635 | 5979 ft | 278 kts | 227° |
| 2026-04-24 12:18 | -35.40255 | 149.50910 | 5980 ft | 279 kts | 227° |
| 2026-04-24 12:18 | -35.41582 | 149.49179 | 5980 ft | 279 kts | 227° |
| 2026-04-24 12:18 | -35.42911 | 149.47444 | 5988 ft | 278 kts | 227° |
| 2026-04-24 12:18 | -35.44226 | 149.45727 | 5985 ft | 279 kts | 227° |
| 2026-04-24 12:19 | -35.45558 | 149.43990 | 5986 ft | 278 kts | 227° |
| 2026-04-24 12:19 | -35.46882 | 149.42260 | 5986 ft | 278 kts | 227° |
| 2026-04-24 12:19 | -35.48205 | 149.40530 | 5987 ft | 278 kts | 227° |
| 2026-04-24 12:19 | -35.49535 | 149.38789 | 5987 ft | 278 kts | 227° |
| 2026-04-24 12:20 | -35.50858 | 149.37055 | 5993 ft | 278 kts | 227° |
| 2026-04-24 12:20 | -35.52184 | 149.35318 | 5993 ft | 278 kts | 227° |
| 2026-04-24 12:20 | -35.53505 | 149.33586 | 5992 ft | 278 kts | 227° |
| 2026-04-24 12:20 | -35.54726 | 149.31756 | 5991 ft | 277 kts | 240° |
| 2026-04-24 12:21 | -35.55436 | 149.29606 | 5990 ft | 265 kts | 259° |
| 2026-04-24 12:21 | -35.55694 | 149.27426 | 5995 ft | 257 kts | 264° |
| 2026-04-24 12:21 | -35.55932 | 149.25272 | 5983 ft | 245 kts | 263° |
| 2026-04-24 12:21 | -35.56078 | 149.23292 | 5990 ft | 227 kts | 279° |
| 2026-04-24 12:22 | -35.55504 | 149.21432 | 6018 ft | 247 kts | 307° |
| 2026-04-24 12:22 | -35.54238 | 149.20012 | 5994 ft | 248 kts | 332° |
| 2026-04-24 12:22 | -35.52647 | 149.19260 | 6040 ft | 245 kts | 348° |
| 2026-04-24 12:22 | -35.50948 | 149.19094 | 6110 ft | 245 kts | 2° |
| 2026-04-24 12:23 | -35.49247 | 149.19210 | 6111 ft | 243 kts | 4° |
| 2026-04-24 12:23 | -35.47574 | 149.19351 | 5908 ft | 240 kts | 2° |
| 2026-04-24 12:23 | -35.45913 | 149.19440 | 5485 ft | 238 kts | 359° |
| 2026-04-24 12:23 | -35.44260 | 149.19471 | 4917 ft | 239 kts | 358° |
| 2026-04-24 12:24 | -35.42631 | 149.19443 | 4535 ft | 229 kts | 358° |
| 2026-04-24 12:24 | -35.41083 | 149.19427 | 4058 ft | 214 kts | 360° |
| 2026-04-24 12:24 | -35.39646 | 149.19439 | 3636 ft | 200 kts | 359° |
| 2026-04-24 12:24 | -35.38331 | 149.19437 | 3328 ft | 180 kts | 359° |
| 2026-04-24 12:25 | -35.37304 | 149.19438 | 3196 ft | 158 kts | 358° |
| 2026-04-24 12:25 | -35.36120 | 149.19419 | 2863 ft | 148 kts | 359° |
| 2026-04-24 12:25 | -35.35121 | 149.19424 | 2671 ft | 138 kts | 360° |
| 2026-04-24 12:25 | -35.34166 | 149.19426 | 2418 ft | 136 kts | 358° |
| 2026-04-24 12:26 | -35.33231 | 149.19463 | 2247 ft | 134 kts | 359° |
| 2026-04-24 12:26 | -35.32292 | 149.19454 | 2085 ft | 136 kts | 358° |
| 2026-04-24 12:26 | -35.31347 | 149.19446 | 1893 ft | 134 kts | 358° |
| 2026-04-24 12:26 | -35.30575 | 149.19445 | 1877 ft | 72 kts | 0° |
| 2026-04-24 12:27 | -35.30270 | 149.19444 | 1877 ft | 21 kts | 359° |
| 2026-04-24 12:27 | -35.30171 | 149.19358 | 1875 ft | 19 kts | 290° |
| 2026-04-24 12:27 | -35.30146 | 149.19271 | 1875 ft | 4 kts | 277° |